Coshocton, OH

7:10 AM EST on December 28, 2014 (GMT -0500)
Clever | Change Station
CLOSE
Current Station
Airport
Location: New Philadelphia,
Elevation: 892 ft
Nearby Weather Stations

Elev 892 ft 40.47 °N, 81.42 °W | Updated 17 minutes ago

Overcast
Overcast
39 °F
Feels Like 34 °F
N
7
Wind Variable Wind from NW

Today
High -- | Low -- °F
--% Chance of Precip.
Yesterday
High -- | Low -- °F
Precip. -- in
7:49 AM 5:08 PM
Waxing Crescent, 47% visible
Pressure 30.07 in
Visibility 4.0 miles
Clouds Mostly Cloudy 600 ft
Overcast 1300 ft
Windchill 34 °F
Dew Point 37 °F
Humidity 93%
Rainfall 0.27 in
Snow Depth Not available.
UV 0 out of 12
Pollen .10 out of 12
Air Quality Not available.
Flu Activity Not available.
METAR KPHD 281153Z AUTO 31006KT 4SM -RA BR BKN006 OVC013 04/03 A3005 RMK AO2 CIG 004V010 SLP181 P0003 60025 70040 T00390028 10083 20039 53028

More Conditions Fewer Conditions

Pressure 30.07 in
Visibility 4.0 miles
Clouds Mostly Cloudy 600 ft
Overcast 1300 ft
Windchill 34 °F
Dew Point 37 °F
Humidity 93%
Rainfall 0.27 in
Snow Depth Not available.
UV 0 out of 12
Pollen .10 out of 12
Air Quality Not available.
Flu Activity Not available.
METAR KPHD 281153Z AUTO 31006KT 4SM -RA BR BKN006 OVC013 04/03 A3005 RMK AO2 CIG 004V010 SLP181 P0003 60025 70040 T00390028 10083 20039 53028

More Conditions Fewer Conditions

10-Day Weather Forecast

Almanac

Astronomy

Dec. 28, 2014 Rise Set
Actual Time
Civil Twilight
Nautical Twilight
Astronomical Twilight
Moon
Length of Visible Light
Length of Day
Tomorrow will be .
, % of the Moon is Illuminated

Today's Extremes

State Highs State Lows

Community

WunderPhotos

Upload Photos

1,781,238 photos uploaded!

WunderBlogs® & News

Nearby

Air Quality

  Air Quality AQ Index Pollutant
Not available.

Snow Depth

Station Depth Elevation

Earthquake Activity

City Distance Mag. Time & Date
Minimum magnitude displayed is 2.5.

Coastal Water Temperatures

Place Temperature

Nearby Weather Stations